Terminal Aerodrome Forecast
Issued by NWS Cleveland, OH

Home | Current Version | Previous Version | Text Only | Print | Product List | Glossary On
Versions: 1 2 3 4 5 6 7 8 9 10 11 12 13 14 15 16 17 18 19 20 21 22 23 24 25 26 27 28
000
FTUS41 KCLE 290948 AAA
TAFYNG
TAF AMD
KYNG 290948Z 2910/3006 01009KT P6SM SCT015
      TEMPO 2910/2914 BKN015
     FM291400 02010KT P6SM BKN012 OVC025
     FM291700 02008KT P6SM SCT025 BKN250=

USA.gov is the U.S. government's official web portal to all federal, state and local government web resources and services.